Time;durP1;ratioP1;P1;durP2;ratioP2;P2;SDS_P1;SDS_P2;PMS_P1;PMS_P2;Temp;Humidity;BMP_temperature;BMP_pressure;BME280_temperature;BME280_humidity;BME280_pressure;Samples;Min_cycle;Max_cycle;Signal;HPM_P1;HPM_P2
2022/01/27 00:02:52;;;;;;;59.90;30.33;;;;;;;;;;2057006;28;20535;-61
2022/01/27 00:04:17;;;;;;;46.60;24.10;;;;;;;;;;2058301;28;20178;-62
2022/01/27 00:05:20;;;;;;;55.17;29.53;;;;;;;;;;2061386;28;20248;-63
2022/01/27 00:06:20;;;;;;;65.00;32.60;;;;;;;;;;2065278;28;20170;-62
2022/01/27 00:07:21;;;;;;;52.30;27.77;;;;;;;;;;2064561;28;20177;-62
2022/01/27 00:08:30;;;;;;;56.83;28.67;;;;;;;;;;2064825;28;20252;-62
2022/01/27 00:11:03;;;;;;;66.97;32.97;;;;;;;;;;2055547;28;20663;-63
2022/01/27 00:12:04;;;;;;;59.20;31.50;;;;;;;;;;2064789;28;20177;-62
2022/01/27 00:13:09;;;;;;;55.23;29.17;;;;;;;;;;2064873;28;20781;-62
2022/01/27 00:14:11;;;;;;;45.30;25.57;;;;;;;;;;2064079;28;20256;-62
2022/01/27 00:15:13;;;;;;;57.50;29.13;;;;;;;;;;2062893;28;20183;-63
2022/01/27 00:16:35;;;;;;;62.00;30.93;;;;;;;;;;2064292;28;20182;-62
2022/01/27 00:17:40;;;;;;;56.43;32.43;;;;;;;;;;2064605;28;20220;-62
2022/01/27 00:18:41;;;;;;;58.83;28.83;;;;;;;;;;2063935;28;20201;-63
2022/01/27 00:19:41;;;;;;;58.20;31.40;;;;;;;;;;2058289;28;20186;-62
2022/01/27 00:20:42;;;;;;;63.93;34.30;;;;;;;;;;2062659;28;20185;-62
2022/01/27 00:21:42;;;;;;;58.40;30.63;;;;;;;;;;2064177;28;20549;-63
2022/01/27 00:22:42;;;;;;;65.87;31.43;;;;;;;;;;2064214;28;20174;-61
2022/01/27 00:23:45;;;;;;;53.80;27.80;;;;;;;;;;2065037;28;20185;-61
2022/01/27 00:24:45;;;;;;;60.13;30.73;;;;;;;;;;2059787;28;20177;-63
2022/01/27 00:25:45;;;;;;;57.07;31.53;;;;;;;;;;2064642;28;20239;-57
2022/01/27 00:26:46;;;;;;;57.80;30.03;;;;;;;;;;2064000;28;20272;-61
2022/01/27 00:27:47;;;;;;;58.83;31.63;;;;;;;;;;2061205;28;20265;-62
2022/01/27 00:28:48;;;;;;;54.90;31.33;;;;;;;;;;2064367;28;20174;-63
2022/01/27 00:29:48;;;;;;;55.97;29.87;;;;;;;;;;2058312;28;20690;-62
2022/01/27 00:30:49;;;;;;;55.50;30.57;;;;;;;;;;2063162;28;20255;-63
2022/01/27 00:31:49;;;;;;;61.23;32.30;;;;;;;;;;2065406;28;20216;-62
2022/01/27 00:32:49;;;;;;;55.97;29.93;;;;;;;;;;2066317;28;20638;-62
2022/01/27 00:33:50;;;;;;;55.97;31.13;;;;;;;;;;2065420;28;20170;-64
2022/01/27 00:34:51;;;;;;;52.27;26.87;;;;;;;;;;2062429;28;20856;-62
2022/01/27 00:35:51;;;;;;;57.87;30.50;;;;;;;;;;2065924;28;20184;-62
2022/01/27 00:36:51;;;;;;;54.30;28.30;;;;;;;;;;2061610;28;20174;-61
2022/01/27 00:37:51;;;;;;;55.10;30.00;;;;;;;;;;2064421;28;20192;-63
2022/01/27 00:38:52;;;;;;;53.40;28.93;;;;;;;;;;2065340;28;20181;-63
2022/01/27 00:39:52;;;;;;;54.30;30.30;;;;;;;;;;2059913;28;20205;-62
2022/01/27 00:40:52;;;;;;;54.33;30.37;;;;;;;;;;2066141;28;20182;-63
2022/01/27 00:41:53;;;;;;;58.53;30.10;;;;;;;;;;2065341;28;20197;-63
2022/01/27 00:42:53;;;;;;;61.20;31.80;;;;;;;;;;2065730;28;20307;-63
2022/01/27 00:43:53;;;;;;;58.07;30.30;;;;;;;;;;2066265;28;20213;-63
2022/01/27 00:44:54;;;;;;;50.70;27.23;;;;;;;;;;2059420;28;20194;-63
2022/01/27 00:45:54;;;;;;;53.40;28.80;;;;;;;;;;2060263;28;20248;-62
2022/01/27 00:46:55;;;;;;;56.37;31.27;;;;;;;;;;2064910;28;20185;-61
2022/01/27 00:47:55;;;;;;;43.57;24.77;;;;;;;;;;2065789;28;20217;-61
2022/01/27 00:48:56;;;;;;;56.20;31.17;;;;;;;;;;2066022;28;20174;-61
2022/01/27 00:49:56;;;;;;;55.83;30.53;;;;;;;;;;2060418;28;20646;-57
2022/01/27 00:51:01;;;;;;;56.30;31.60;;;;;;;;;;2064776;28;20268;-63
2022/01/27 00:52:03;;;;;;;50.93;26.50;;;;;;;;;;2057272;28;20201;-61
2022/01/27 00:53:15;;;;;;;47.70;25.77;;;;;;;;;;2065104;28;20173;-63
2022/01/27 00:54:22;;;;;;;48.10;25.13;;;;;;;;;;2060836;28;20194;-62
2022/01/27 00:55:24;;;;;;;56.60;31.20;;;;;;;;;;2065499;28;20174;-62
2022/01/27 00:56:31;;;;;;;48.47;28.97;;;;;;;;;;2062923;28;20188;-62
2022/01/27 00:59:56;;;;;;;55.27;30.40;;;;;;;;;;2061381;28;20194;-62
2022/01/27 01:01:01;;;;;;;51.20;29.43;;;;;;;;;;2060009;28;20175;-62
2022/01/27 01:02:11;;;;;;;50.80;26.77;;;;;;;;;;2065763;28;20748;-63
2022/01/27 01:03:25;;;;;;;49.20;26.27;;;;;;;;;;2065325;28;20178;-59
2022/01/27 01:04:31;;;;;;;49.00;28.70;;;;;;;;;;2059222;28;20753;-61
2022/01/27 01:06:47;;;;;;;49.20;25.90;;;;;;;;;;2066198;28;20564;-62
2022/01/27 01:07:52;;;;;;;51.77;28.27;;;;;;;;;;2060488;28;20189;-61
2022/01/27 01:13:24;;;;;;;52.90;29.00;;;;;;;;;;2066286;28;20503;-62
2022/01/27 01:16:11;;;;;;;42.30;24.67;;;;;;;;;;2066216;28;20630;-62
2022/01/27 01:30:58;;;;;;;54.17;30.00;;;;;;;;;;2057959;28;20162;-63
2022/01/27 01:33:04;;;;;;;55.93;31.37;;;;;;;;;;2064123;28;20161;-62
2022/01/27 01:34:14;;;;;;;55.50;27.93;;;;;;;;;;2065138;28;20184;-63
2022/01/27 01:35:15;;;;;;;47.67;28.63;;;;;;;;;;2063502;28;20197;-62
2022/01/27 01:36:26;;;;;;;54.13;29.57;;;;;;;;;;2066094;28;20178;-63
2022/01/27 01:37:26;;;;;;;47.60;28.40;;;;;;;;;;2062881;28;20170;-63
2022/01/27 01:38:29;;;;;;;52.93;28.93;;;;;;;;;;2063774;28;20170;-62
2022/01/27 01:39:31;;;;;;;52.73;29.80;;;;;;;;;;2061517;28;20200;-63
2022/01/27 01:40:31;;;;;;;43.67;27.13;;;;;;;;;;2063479;28;20206;-63
2022/01/27 01:41:32;;;;;;;52.57;31.13;;;;;;;;;;2065151;28;20190;-61
2022/01/27 01:42:33;;;;;;;56.87;31.33;;;;;;;;;;2064561;28;20170;-61
2022/01/27 01:43:33;;;;;;;50.80;29.37;;;;;;;;;;2064616;28;20288;-61
2022/01/27 01:44:33;;;;;;;51.37;29.53;;;;;;;;;;2065413;28;20272;-63
2022/01/27 01:45:35;;;;;;;53.47;31.20;;;;;;;;;;2063673;28;20662;-60
2022/01/27 01:46:35;;;;;;;53.13;30.07;;;;;;;;;;2064627;28;20630;-62
2022/01/27 01:47:35;;;;;;;46.43;28.27;;;;;;;;;;2065002;28;20177;-61
2022/01/27 01:48:35;;;;;;;46.60;25.57;;;;;;;;;;2064657;28;20166;-63
2022/01/27 01:49:36;;;;;;;55.77;29.80;;;;;;;;;;2065917;28;20634;-64
2022/01/27 01:50:36;;;;;;;48.63;27.47;;;;;;;;;;2065820;28;20756;-64
2022/01/27 01:51:38;;;;;;;44.43;22.90;;;;;;;;;;2065679;28;20232;-62
2022/01/27 01:52:38;;;;;;;52.30;30.00;;;;;;;;;;2065966;28;20265;-63
2022/01/27 01:53:38;;;;;;;50.77;30.73;;;;;;;;;;2065843;28;20627;-63
2022/01/27 01:54:39;;;;;;;55.80;30.97;;;;;;;;;;2065392;28;20177;-60
2022/01/27 01:55:39;;;;;;;49.33;28.47;;;;;;;;;;2062543;28;20209;-60
2022/01/27 01:56:40;;;;;;;46.33;25.87;;;;;;;;;;2064524;28;20170;-64
2022/01/27 01:57:41;;;;;;;49.97;29.03;;;;;;;;;;2064683;28;20742;-61
2022/01/27 01:58:41;;;;;;;52.13;32.37;;;;;;;;;;2065264;28;20201;-63
2022/01/27 01:59:44;;;;;;;49.17;28.50;;;;;;;;;;2065070;28;20183;-62
2022/01/27 02:00:44;;;;;;;55.67;30.30;;;;;;;;;;2076713;22;20264;-58
2022/01/27 02:01:44;;;;;;;45.10;24.20;;;;;;;;;;2060664;28;20186;-58
2022/01/27 02:02:45;;;;;;;49.93;27.83;;;;;;;;;;2059946;28;20650;-57
2022/01/27 02:03:46;;;;;;;51.17;30.67;;;;;;;;;;2066755;28;20166;-57
2022/01/27 02:04:46;;;;;;;57.80;32.07;;;;;;;;;;2066004;28;20182;-57
2022/01/27 02:05:52;;;;;;;44.43;25.60;;;;;;;;;;2065888;28;20181;-55
2022/01/27 02:06:57;;;;;;;50.83;29.93;;;;;;;;;;2066381;28;20170;-55
2022/01/27 02:08:14;;;;;;;57.83;30.50;;;;;;;;;;2065693;28;20178;-53
2022/01/27 02:18:54;;;;;;;52.60;29.83;;;;;;;;;;2065218;28;20296;-54
2022/01/27 02:19:56;;;;;;;57.07;32.53;;;;;;;;;;2067445;28;20361;-56
2022/01/27 02:20:56;;;;;;;45.57;27.70;;;;;;;;;;2068390;28;20700;-53
2022/01/27 02:21:58;;;;;;;55.20;31.00;;;;;;;;;;2068297;28;20199;-57
2022/01/27 02:22:58;;;;;;;58.87;35.00;;;;;;;;;;2069592;28;20170;-59
2022/01/27 02:23:58;;;;;;;55.13;30.97;;;;;;;;;;2067716;28;20209;-57
2022/01/27 02:24:58;;;;;;;49.63;28.73;;;;;;;;;;2067903;28;20181;-56
2022/01/27 02:25:59;;;;;;;48.47;27.83;;;;;;;;;;2067377;28;20178;-58
2022/01/27 02:27:00;;;;;;;51.37;30.60;;;;;;;;;;2062674;28;20193;-57
2022/01/27 02:28:00;;;;;;;49.63;26.83;;;;;;;;;;2067688;28;20261;-58
2022/01/27 02:29:01;;;;;;;39.73;23.27;;;;;;;;;;2064542;28;20181;-58
2022/01/27 02:30:01;;;;;;;28.80;17.80;;;;;;;;;;2067818;28;20184;-57
2022/01/27 02:31:01;;;;;;;46.63;26.30;;;;;;;;;;2059422;28;20305;-58
2022/01/27 02:32:02;;;;;;;45.20;28.10;;;;;;;;;;2060086;28;20694;-57
2022/01/27 02:33:03;;;;;;;57.43;33.30;;;;;;;;;;2064712;28;20272;-56
2022/01/27 02:34:05;;;;;;;47.57;28.70;;;;;;;;;;2068233;28;20181;-57
2022/01/27 02:35:05;;;;;;;49.37;30.77;;;;;;;;;;2066596;28;20197;-56
2022/01/27 02:36:06;;;;;;;49.07;28.20;;;;;;;;;;2065641;28;20173;-57
2022/01/27 02:37:07;;;;;;;51.40;30.47;;;;;;;;;;2065308;28;20196;-55
2022/01/27 02:38:07;;;;;;;49.07;29.27;;;;;;;;;;2060115;28;20679;-56
2022/01/27 02:39:08;;;;;;;45.83;25.33;;;;;;;;;;2064846;28;20173;-56
2022/01/27 02:40:10;;;;;;;47.87;28.93;;;;;;;;;;2065547;28;20197;-55
2022/01/27 02:41:11;;;;;;;46.57;28.53;;;;;;;;;;2063501;28;20169;-56
2022/01/27 02:42:26;;;;;;;55.23;30.30;;;;;;;;;;2064675;28;20200;-55
2022/01/27 02:43:26;;;;;;;46.50;28.67;;;;;;;;;;2064261;28;20231;-57
2022/01/27 02:44:29;;;;;;;51.77;31.57;;;;;;;;;;2064967;28;20256;-57
2022/01/27 02:45:36;;;;;;;56.50;30.53;;;;;;;;;;2065363;28;20186;-58
2022/01/27 02:46:42;;;;;;;51.17;30.60;;;;;;;;;;2057674;28;20183;-54
2022/01/27 02:47:42;;;;;;;45.80;27.33;;;;;;;;;;2064387;28;20154;-54
2022/01/27 02:48:43;;;;;;;47.93;27.23;;;;;;;;;;2065468;28;20170;-53
2022/01/27 02:49:43;;;;;;;49.17;30.43;;;;;;;;;;2065460;28;20173;-55
2022/01/27 02:50:44;;;;;;;44.07;24.53;;;;;;;;;;2065606;28;20284;-57
2022/01/27 02:51:44;;;;;;;49.50;27.73;;;;;;;;;;2065717;28;20184;-55
2022/01/27 02:52:44;;;;;;;44.63;25.03;;;;;;;;;;2065751;28;20554;-54
2022/01/27 02:53:45;;;;;;;50.63;29.40;;;;;;;;;;2065844;28;20899;-54
2022/01/27 02:54:45;;;;;;;46.10;27.53;;;;;;;;;;2065067;28;20571;-57
2022/01/27 02:55:45;;;;;;;42.00;23.40;;;;;;;;;;2065935;28;20265;-57
2022/01/27 02:56:47;;;;;;;48.23;26.83;;;;;;;;;;2066292;28;20178;-57
2022/01/27 02:57:47;;;;;;;48.47;30.13;;;;;;;;;;2066236;28;20174;-55
2022/01/27 02:58:47;;;;;;;44.77;23.73;;;;;;;;;;2065536;28;20177;-55
2022/01/27 02:59:48;;;;;;;43.73;25.43;;;;;;;;;;2065351;28;20658;-55
2022/01/27 03:00:48;;;;;;;46.13;25.27;;;;;;;;;;2065548;28;20201;-57
2022/01/27 03:01:50;;;;;;;40.77;23.30;;;;;;;;;;2065859;28;20178;-53
2022/01/27 03:02:50;;;;;;;43.17;25.97;;;;;;;;;;2066085;28;20176;-55
2022/01/27 03:03:50;;;;;;;44.63;26.03;;;;;;;;;;2065390;28;20553;-55
2022/01/27 03:04:50;;;;;;;44.83;28.53;;;;;;;;;;2066556;28;20269;-54
2022/01/27 03:05:51;;;;;;;45.47;27.67;;;;;;;;;;2068053;28;20177;-55
2022/01/27 03:06:51;;;;;;;36.53;23.17;;;;;;;;;;2067653;28;20640;-56
2022/01/27 03:07:51;;;;;;;46.70;29.20;;;;;;;;;;2068221;28;20581;-56
2022/01/27 03:08:52;;;;;;;42.70;24.40;;;;;;;;;;2060139;28;20614;-54
2022/01/27 03:09:54;;;;;;;52.23;29.03;;;;;;;;;;2061592;28;20173;-55
2022/01/27 03:10:58;;;;;;;44.73;26.87;;;;;;;;;;2063853;28;20256;-55
2022/01/27 03:12:00;;;;;;;45.83;27.57;;;;;;;;;;2059322;28;20201;-57
2022/01/27 03:13:01;;;;;;;34.63;20.90;;;;;;;;;;2064239;28;20566;-57
2022/01/27 03:14:01;;;;;;;42.27;27.60;;;;;;;;;;2064790;28;20182;-54
2022/01/27 03:15:02;;;;;;;43.83;27.73;;;;;;;;;;2063831;28;20205;-54
2022/01/27 03:16:05;;;;;;;42.33;27.30;;;;;;;;;;2064632;28;20211;-53
2022/01/27 03:17:06;;;;;;;37.20;22.33;;;;;;;;;;2064316;28;20193;-56
2022/01/27 03:18:07;;;;;;;40.20;24.30;;;;;;;;;;2065012;28;20178;-54
2022/01/27 03:19:07;;;;;;;42.40;26.77;;;;;;;;;;2063730;28;20189;-58
2022/01/27 03:20:09;;;;;;;44.73;28.23;;;;;;;;;;2064428;28;20181;-57
2022/01/27 03:21:10;;;;;;;39.23;25.00;;;;;;;;;;2065625;28;20178;-57
2022/01/27 03:22:10;;;;;;;39.53;25.27;;;;;;;;;;2067640;28;20700;-54
2022/01/27 03:23:10;;;;;;;44.70;26.87;;;;;;;;;;2063062;28;20221;-56
2022/01/27 03:24:11;;;;;;;44.30;29.30;;;;;;;;;;2064406;28;20184;-53
2022/01/27 03:25:11;;;;;;;43.03;26.60;;;;;;;;;;2056179;28;20598;-56
2022/01/27 03:26:11;;;;;;;42.73;29.20;;;;;;;;;;2056685;28;20174;-58
2022/01/27 03:27:22;;;;;;;45.97;28.20;;;;;;;;;;2064002;28;20674;-57
2022/01/27 03:28:26;;;;;;;40.87;23.37;;;;;;;;;;2063555;28;20174;-54
2022/01/27 03:29:27;;;;;;;43.30;27.80;;;;;;;;;;2059167;28;20185;-55
2022/01/27 03:30:27;;;;;;;36.87;22.47;;;;;;;;;;2064268;28;20189;-56
2022/01/27 03:31:28;;;;;;;43.63;27.33;;;;;;;;;;2064138;28;20178;-58
2022/01/27 03:32:28;;;;;;;38.50;24.40;;;;;;;;;;2061907;28;20661;-55
2022/01/27 03:33:28;;;;;;;35.83;22.33;;;;;;;;;;2063369;28;20186;-58
2022/01/27 03:34:28;;;;;;;40.37;24.80;;;;;;;;;;2062319;28;20182;-55
2022/01/27 03:35:29;;;;;;;40.83;26.23;;;;;;;;;;2063075;28;20209;-53
2022/01/27 03:36:29;;;;;;;40.00;23.70;;;;;;;;;;2065791;28;20166;-53
2022/01/27 03:37:30;;;;;;;45.90;28.80;;;;;;;;;;2065986;28;20725;-55
2022/01/27 03:38:30;;;;;;;42.90;27.07;;;;;;;;;;2066094;28;20201;-54
2022/01/27 03:39:30;;;;;;;42.87;27.47;;;;;;;;;;2057856;28;20198;-58
2022/01/27 03:40:30;;;;;;;39.23;25.13;;;;;;;;;;2062372;28;20252;-55
2022/01/27 03:41:35;;;;;;;42.17;27.53;;;;;;;;;;2065472;28;20184;-57
2022/01/27 03:42:43;;;;;;;39.77;24.10;;;;;;;;;;2061268;28;20208;-54
2022/01/27 03:43:44;;;;;;;35.00;23.07;;;;;;;;;;2066747;28;20169;-55
2022/01/27 03:44:44;;;;;;;35.50;20.73;;;;;;;;;;2065623;28;20174;-57
2022/01/27 03:45:44;;;;;;;40.30;27.53;;;;;;;;;;2066134;28;20652;-61
2022/01/27 03:46:45;;;;;;;51.80;28.20;;;;;;;;;;2062333;28;20337;-55
2022/01/27 03:47:45;;;;;;;39.17;24.83;;;;;;;;;;2065508;28;20538;-57
2022/01/27 03:48:45;;;;;;;40.53;25.17;;;;;;;;;;2066730;28;20185;-56
2022/01/27 03:49:45;;;;;;;41.90;26.03;;;;;;;;;;2065455;28;20600;-53
2022/01/27 03:50:46;;;;;;;45.97;28.03;;;;;;;;;;2066470;28;20221;-54
2022/01/27 03:51:46;;;;;;;38.90;24.23;;;;;;;;;;2065761;28;20209;-54
2022/01/27 03:52:46;;;;;;;42.17;27.47;;;;;;;;;;2067251;28;20645;-56
2022/01/27 03:53:47;;;;;;;42.00;25.47;;;;;;;;;;2065717;28;20201;-58
2022/01/27 03:54:48;;;;;;;35.60;23.10;;;;;;;;;;2066178;28;20173;-59
2022/01/27 03:55:49;;;;;;;42.00;25.97;;;;;;;;;;2065156;28;20165;-58
2022/01/27 03:56:49;;;;;;;41.60;26.70;;;;;;;;;;2066830;28;20189;-55
2022/01/27 03:57:49;;;;;;;38.33;24.33;;;;;;;;;;2065730;28;20173;-55
2022/01/27 03:58:49;;;;;;;40.93;26.37;;;;;;;;;;2066238;28;20232;-58
2022/01/27 03:59:50;;;;;;;40.03;24.43;;;;;;;;;;2065158;28;20173;-53
2022/01/27 04:00:50;;;;;;;41.23;24.87;;;;;;;;;;2065452;28;20227;-56
2022/01/27 04:01:50;;;;;;;43.23;26.10;;;;;;;;;;2064655;28;20196;-54
2022/01/27 04:03:11;;;;;;;41.97;26.70;;;;;;;;;;2066130;28;20177;-55
2022/01/27 04:04:14;;;;;;;37.43;21.37;;;;;;;;;;2066359;28;20186;-56
2022/01/27 04:05:14;;;;;;;36.53;22.67;;;;;;;;;;2064974;28;20180;-55
2022/01/27 04:06:20;;;;;;;41.27;24.40;;;;;;;;;;2065422;28;20260;-57
2022/01/27 04:07:21;;;;;;;40.20;27.20;;;;;;;;;;2057705;28;20178;-56
2022/01/27 04:08:22;;;;;;;40.80;26.77;;;;;;;;;;2064918;28;20177;-52
2022/01/27 04:09:24;;;;;;;47.20;27.17;;;;;;;;;;2066319;28;20177;-61
2022/01/27 04:10:24;;;;;;;43.60;25.13;;;;;;;;;;2062959;28;21233;-56
2022/01/27 04:11:24;;;;;;;32.03;20.63;;;;;;;;;;2063680;28;20165;-55
2022/01/27 04:12:25;;;;;;;37.67;25.33;;;;;;;;;;2065871;28;20184;-55
2022/01/27 04:13:25;;;;;;;42.03;23.93;;;;;;;;;;2065176;28;20623;-56
2022/01/27 04:14:25;;;;;;;43.67;26.30;;;;;;;;;;2065242;28;20638;-56
2022/01/27 04:15:26;;;;;;;43.90;27.07;;;;;;;;;;2065385;28;20692;-56
2022/01/27 04:16:26;;;;;;;37.37;25.27;;;;;;;;;;2065121;28;20173;-57
2022/01/27 04:17:26;;;;;;;36.57;22.60;;;;;;;;;;2060851;28;20190;-57
2022/01/27 04:18:27;;;;;;;40.07;24.93;;;;;;;;;;2062422;28;20309;-59
2022/01/27 04:19:27;;;;;;;39.90;22.97;;;;;;;;;;2064692;28;20177;-58
2022/01/27 04:20:28;;;;;;;33.20;17.77;;;;;;;;;;2064984;28;20201;-57
2022/01/27 04:21:28;;;;;;;38.00;23.83;;;;;;;;;;2058917;28;20228;-58
2022/01/27 04:22:28;;;;;;;39.83;24.10;;;;;;;;;;2059923;28;20201;-58
2022/01/27 04:23:29;;;;;;;29.67;18.50;;;;;;;;;;2063034;28;20201;-57
2022/01/27 04:24:30;;;;;;;33.80;23.30;;;;;;;;;;2060182;28;20185;-57
2022/01/27 04:25:30;;;;;;;31.63;20.73;;;;;;;;;;2063369;28;20209;-57
2022/01/27 04:26:40;;;;;;;27.93;18.33;;;;;;;;;;2064954;28;20189;-56
2022/01/27 04:27:45;;;;;;;38.23;24.97;;;;;;;;;;2064724;28;20659;-56
2022/01/27 04:28:48;;;;;;;43.57;27.70;;;;;;;;;;2065053;28;20173;-58
2022/01/27 04:29:48;;;;;;;38.97;23.63;;;;;;;;;;2064764;28;20177;-54
2022/01/27 04:30:49;;;;;;;41.50;25.73;;;;;;;;;;2064630;28;20244;-56
2022/01/27 04:31:50;;;;;;;40.07;25.27;;;;;;;;;;2064586;28;20657;-55
2022/01/27 04:32:57;;;;;;;32.47;21.27;;;;;;;;;;2064258;28;20220;-55
2022/01/27 04:33:58;;;;;;;39.87;24.93;;;;;;;;;;2064871;28;20643;-54
2022/01/27 04:35:03;;;;;;;39.10;24.43;;;;;;;;;;2065182;28;20273;-56
2022/01/27 04:36:10;;;;;;;34.93;20.30;;;;;;;;;;2064169;28;20182;-54
2022/01/27 04:37:12;;;;;;;38.77;23.67;;;;;;;;;;2063758;28;20166;-53
2022/01/27 04:39:26;;;;;;;40.17;25.43;;;;;;;;;;2063988;28;20161;-53
2022/01/27 04:40:43;;;;;;;36.80;22.77;;;;;;;;;;2064519;28;20276;-56
2022/01/27 04:41:53;;;;;;;35.67;20.87;;;;;;;;;;2062405;28;20267;-54
2022/01/27 04:43:02;;;;;;;39.47;25.60;;;;;;;;;;2057201;28;20176;-54
2022/01/27 04:45:36;;;;;;;40.37;23.97;;;;;;;;;;2055669;28;20181;-56
2022/01/27 04:46:58;;;;;;;35.93;22.50;;;;;;;;;;2064544;28;20170;-56
2022/01/27 04:48:08;;;;;;;36.17;21.97;;;;;;;;;;2060582;28;20193;-55
2022/01/27 04:49:10;;;;;;;29.00;18.63;;;;;;;;;;2063899;28;20194;-54
2022/01/27 04:50:10;;;;;;;34.57;22.90;;;;;;;;;;2061675;28;20177;-58
2022/01/27 04:51:14;;;;;;;35.63;23.70;;;;;;;;;;2064445;28;20181;-57
2022/01/27 04:52:15;;;;;;;38.50;23.73;;;;;;;;;;2063022;28;20228;-54
2022/01/27 04:53:22;;;;;;;31.90;21.43;;;;;;;;;;2064066;28;20224;-57
2022/01/27 04:54:29;;;;;;;39.13;23.27;;;;;;;;;;2063849;28;20176;-57
2022/01/27 04:55:29;;;;;;;33.00;21.00;;;;;;;;;;2056076;28;20166;-56
2022/01/27 04:56:32;;;;;;;34.27;23.47;;;;;;;;;;2055554;28;20221;-57
2022/01/27 04:57:33;;;;;;;45.40;26.23;;;;;;;;;;2062094;28;20575;-53
2022/01/27 04:58:34;;;;;;;32.40;21.53;;;;;;;;;;2061129;28;20186;-56
2022/01/27 04:59:40;;;;;;;38.97;24.20;;;;;;;;;;2063483;28;20185;-55
2022/01/27 05:00:40;;;;;;;33.80;21.57;;;;;;;;;;2063711;28;20267;-55
2022/01/27 05:01:50;;;;;;;39.57;22.07;;;;;;;;;;2063207;28;20614;-55
2022/01/27 05:02:56;;;;;;;33.43;22.83;;;;;;;;;;2063746;28;20174;-57
2022/01/27 05:04:02;;;;;;;39.80;24.63;;;;;;;;;;2059878;28;20186;-52
2022/01/27 05:05:03;;;;;;;41.67;25.67;;;;;;;;;;2065532;28;20213;-55
2022/01/27 05:06:03;;;;;;;32.67;21.77;;;;;;;;;;2063712;28;20182;-56
2022/01/27 05:07:04;;;;;;;35.67;22.50;;;;;;;;;;2064173;28;20180;-56
2022/01/27 05:08:07;;;;;;;35.37;24.13;;;;;;;;;;2064202;28;20197;-54
2022/01/27 05:09:08;;;;;;;37.20;24.97;;;;;;;;;;2063766;28;20797;-55
2022/01/27 05:10:14;;;;;;;39.47;25.27;;;;;;;;;;2064401;28;20209;-58
2022/01/27 05:11:23;;;;;;;30.47;20.40;;;;;;;;;;2060528;28;20209;-54
2022/01/27 05:12:36;;;;;;;32.93;20.97;;;;;;;;;;2064557;28;20180;-55
2022/01/27 05:13:58;;;;;;;38.83;21.83;;;;;;;;;;2057557;28;20614;-57
2022/01/27 05:14:59;;;;;;;40.00;25.60;;;;;;;;;;2062177;28;20189;-58
2022/01/27 05:16:00;;;;;;;33.20;21.50;;;;;;;;;;2064132;28;20226;-56
2022/01/27 05:17:01;;;;;;;38.77;24.83;;;;;;;;;;2063524;28;20186;-55
2022/01/27 05:18:01;;;;;;;36.67;25.00;;;;;;;;;;2064260;28;20224;-57
2022/01/27 05:19:01;;;;;;;38.53;25.67;;;;;;;;;;2065821;28;20182;-58
2022/01/27 05:20:02;;;;;;;35.83;23.73;;;;;;;;;;2064776;28;20181;-56
2022/01/27 05:21:02;;;;;;;38.53;26.40;;;;;;;;;;2065390;28;20252;-57
2022/01/27 05:22:02;;;;;;;34.47;21.90;;;;;;;;;;2058411;28;20237;-56
2022/01/27 05:23:03;;;;;;;41.37;26.13;;;;;;;;;;2060070;28;20179;-56
2022/01/27 05:24:04;;;;;;;40.03;26.27;;;;;;;;;;2064650;28;20170;-56
2022/01/27 05:25:04;;;;;;;37.33;25.00;;;;;;;;;;2065534;28;20193;-57
2022/01/27 05:26:04;;;;;;;36.83;25.07;;;;;;;;;;2065476;28;20316;-57
2022/01/27 05:27:05;;;;;;;43.50;24.70;;;;;;;;;;2065543;28;20170;-58
2022/01/27 05:28:06;;;;;;;38.67;24.63;;;;;;;;;;2065207;28;20174;-56
2022/01/27 05:29:09;;;;;;;38.20;23.47;;;;;;;;;;2060193;28;20201;-57
2022/01/27 05:30:09;;;;;;;34.07;21.50;;;;;;;;;;2065893;28;20185;-56
2022/01/27 05:31:09;;;;;;;31.83;20.67;;;;;;;;;;2065838;28;20174;-55
2022/01/27 05:32:09;;;;;;;37.33;23.07;;;;;;;;;;2065352;28;20181;-57
2022/01/27 05:33:10;;;;;;;34.07;23.33;;;;;;;;;;2065645;28;20712;-56
2022/01/27 05:34:10;;;;;;;42.80;26.57;;;;;;;;;;2063967;28;20185;-55
2022/01/27 05:35:11;;;;;;;40.97;25.60;;;;;;;;;;2060499;28;20177;-53
2022/01/27 05:36:11;;;;;;;35.63;23.73;;;;;;;;;;2061886;28;20243;-56
2022/01/27 05:37:11;;;;;;;42.33;25.43;;;;;;;;;;2065333;28;20582;-55
2022/01/27 05:38:13;;;;;;;36.87;24.73;;;;;;;;;;2065512;28;20169;-57
2022/01/27 05:39:13;;;;;;;33.67;21.53;;;;;;;;;;2064929;28;20173;-56
2022/01/27 05:40:13;;;;;;;39.27;21.50;;;;;;;;;;2066258;28;20172;-56
2022/01/27 05:41:14;;;;;;;37.63;23.83;;;;;;;;;;2063531;28;20216;-58
2022/01/27 05:42:15;;;;;;;39.00;24.20;;;;;;;;;;2062500;28;20201;-55
2022/01/27 05:43:15;;;;;;;35.73;22.90;;;;;;;;;;2066071;28;20578;-58
2022/01/27 05:44:15;;;;;;;41.40;25.20;;;;;;;;;;2066030;28;20224;-57
2022/01/27 05:45:16;;;;;;;41.50;25.80;;;;;;;;;;2062673;28;20225;-56
2022/01/27 05:46:16;;;;;;;38.33;25.47;;;;;;;;;;2062883;28;20260;-57
2022/01/27 05:47:16;;;;;;;34.73;23.07;;;;;;;;;;2065787;28;20244;-57
2022/01/27 05:48:17;;;;;;;39.73;24.57;;;;;;;;;;2066293;28;20173;-58
2022/01/27 05:49:17;;;;;;;37.20;24.50;;;;;;;;;;2064962;28;20261;-56
2022/01/27 05:50:17;;;;;;;32.67;22.17;;;;;;;;;;2065401;28;20278;-60
2022/01/27 05:51:17;;;;;;;30.13;20.13;;;;;;;;;;2066415;28;20249;-57
2022/01/27 05:52:19;;;;;;;33.87;22.23;;;;;;;;;;2066627;28;20221;-56
2022/01/27 05:53:19;;;;;;;38.13;24.23;;;;;;;;;;2066748;28;20182;-57
2022/01/27 05:54:20;;;;;;;29.93;20.40;;;;;;;;;;2066251;28;20689;-58
2022/01/27 05:55:21;;;;;;;33.07;22.90;;;;;;;;;;2066264;28;20197;-56
2022/01/27 05:56:21;;;;;;;36.70;24.63;;;;;;;;;;2066570;28;20169;-56
2022/01/27 05:57:22;;;;;;;33.57;23.90;;;;;;;;;;2066033;28;20173;-56
2022/01/27 05:58:22;;;;;;;36.53;24.00;;;;;;;;;;2065594;28;20186;-55
2022/01/27 05:59:23;;;;;;;38.80;23.40;;;;;;;;;;2068428;28;20177;-54
2022/01/27 06:00:23;;;;;;;36.47;24.27;;;;;;;;;;2065572;28;20188;-54
2022/01/27 06:01:23;;;;;;;31.63;19.73;;;;;;;;;;2068805;28;20216;-55
2022/01/27 06:02:24;;;;;;;29.03;17.27;;;;;;;;;;2066056;28;20214;-56
2022/01/27 06:03:24;;;;;;;39.30;23.70;;;;;;;;;;2066253;28;20241;-54
2022/01/27 06:04:25;;;;;;;37.43;24.90;;;;;;;;;;2068136;28;20346;-54
2022/01/27 06:05:26;;;;;;;37.57;24.90;;;;;;;;;;2067587;28;20193;-56
2022/01/27 06:06:26;;;;;;;32.20;20.57;;;;;;;;;;2066158;28;20182;-57
2022/01/27 06:07:26;;;;;;;27.43;18.40;;;;;;;;;;2066687;28;20178;-57
2022/01/27 06:08:29;;;;;;;31.20;21.47;;;;;;;;;;2067124;28;20276;-56
2022/01/27 06:09:29;;;;;;;37.03;24.63;;;;;;;;;;2067377;28;20661;-57
2022/01/27 06:10:30;;;;;;;32.70;21.53;;;;;;;;;;2065911;28;20204;-57
2022/01/27 06:11:30;;;;;;;33.97;24.57;;;;;;;;;;2066029;28;20162;-59
2022/01/27 06:12:30;;;;;;;42.03;23.83;;;;;;;;;;2064929;28;20193;-57
2022/01/27 06:13:30;;;;;;;33.10;20.87;;;;;;;;;;2066494;28;20200;-58
2022/01/27 06:14:31;;;;;;;38.73;24.73;;;;;;;;;;2065279;28;20212;-56
2022/01/27 06:15:31;;;;;;;34.93;23.37;;;;;;;;;;2065234;28;20657;-55
2022/01/27 06:16:31;;;;;;;40.60;26.27;;;;;;;;;;2065408;28;20280;-57
2022/01/27 06:17:31;;;;;;;34.23;21.97;;;;;;;;;;2059201;28;20190;-58
2022/01/27 06:18:32;;;;;;;38.67;25.83;;;;;;;;;;2063738;28;20185;-56
2022/01/27 06:19:32;;;;;;;32.27;21.07;;;;;;;;;;2065554;28;20227;-55
2022/01/27 06:20:33;;;;;;;37.13;24.13;;;;;;;;;;2065285;28;20223;-56
2022/01/27 06:21:35;;;;;;;37.20;24.37;;;;;;;;;;2062593;28;20265;-55
2022/01/27 06:22:35;;;;;;;39.40;22.73;;;;;;;;;;2064402;28;20240;-57
2022/01/27 06:23:35;;;;;;;36.03;24.03;;;;;;;;;;2065181;28;20178;-55
2022/01/27 06:24:36;;;;;;;39.90;24.13;;;;;;;;;;2065495;28;20192;-53
2022/01/27 06:25:36;;;;;;;30.43;19.43;;;;;;;;;;2064637;28;20204;-57
2022/01/27 06:26:37;;;;;;;44.20;24.97;;;;;;;;;;2057244;28;20174;-57
2022/01/27 06:27:37;;;;;;;38.77;24.07;;;;;;;;;;2063896;28;20173;-56
2022/01/27 06:28:37;;;;;;;41.03;25.20;;;;;;;;;;2064448;28;20275;-56
2022/01/27 06:29:38;;;;;;;40.43;24.77;;;;;;;;;;2062826;28;20181;-54
2022/01/27 06:30:39;;;;;;;40.47;25.07;;;;;;;;;;2065452;28;20200;-58
2022/01/27 06:31:39;;;;;;;35.37;22.20;;;;;;;;;;2070489;28;20165;-59
2022/01/27 06:32:39;;;;;;;37.53;23.63;;;;;;;;;;2065153;28;20236;-55
2022/01/27 06:33:40;;;;;;;30.27;18.83;;;;;;;;;;2064227;28;20173;-57
2022/01/27 06:34:40;;;;;;;40.63;25.80;;;;;;;;;;2065261;28;20177;-57
2022/01/27 06:35:41;;;;;;;35.90;21.50;;;;;;;;;;2062875;28;20210;-57
2022/01/27 06:36:41;;;;;;;40.57;26.20;;;;;;;;;;2066254;28;20224;-58
2022/01/27 06:37:43;;;;;;;38.30;22.57;;;;;;;;;;2066011;28;20166;-57
2022/01/27 06:38:43;;;;;;;40.43;24.73;;;;;;;;;;2059242;28;20193;-59
2022/01/27 06:39:44;;;;;;;41.13;26.00;;;;;;;;;;2064748;28;20201;-57
2022/01/27 06:40:44;;;;;;;42.93;26.33;;;;;;;;;;2064362;28;20209;-55